GLO1346 SBSP-SBVT
Flight info
| Callsign | GLO1346 |
|---|---|
| Flight time | 1h 23m |
| Altitude | 33000 |
| Route | UREMI UZ42 CXI DCT SEGLI DCT TODET |
| Aircraft | B738/M-SDE2E3FGHIRWXY/LB1 |
Departure
| Time | 2026-04-18 09:36 |
|---|---|
| Airport | Congonhas–Deputado Freitas Nobre Airport (SBSP) |
Arrival
| Time | 2026-04-18 11:00 |
|---|---|
| Airport | Eurico de Aguiar Salles International Airport (SBVT) |
| Time | Latitude | Longitude | Altitude | Speed | Heading |
|---|---|---|---|---|---|
| 2026-04-18 08:58 | -23.62687 | -46.65841 | 2600 ft | 0 kts | 237° |
| 2026-04-18 09:25 | -23.62686 | -46.65841 | 2600 ft | 1 kts | 237° |
| 2026-04-18 09:25 | -23.62673 | -46.65819 | 2600 ft | 4 kts | 239° |
| 2026-04-18 09:25 | -23.62659 | -46.65794 | 2600 ft | 4 kts | 233° |
| 2026-04-18 09:25 | -23.62642 | -46.65776 | 2601 ft | 4 kts | 183° |
| 2026-04-18 09:26 | -23.62626 | -46.65783 | 2601 ft | 4 kts | 148° |
| 2026-04-18 09:26 | -23.62614 | -46.65791 | 2601 ft | 1 kts | 147° |
| 2026-04-18 09:30 | -23.62618 | -46.65788 | 2601 ft | 2 kts | 147° |
| 2026-04-18 09:30 | -23.62642 | -46.65770 | 2601 ft | 6 kts | 147° |
| 2026-04-18 09:30 | -23.62692 | -46.65737 | 2601 ft | 10 kts | 148° |
| 2026-04-18 09:31 | -23.62761 | -46.65690 | 2601 ft | 13 kts | 148° |
| 2026-04-18 09:31 | -23.62846 | -46.65630 | 2602 ft | 16 kts | 147° |
| 2026-04-18 09:31 | -23.62937 | -46.65568 | 2602 ft | 15 kts | 147° |
| 2026-04-18 09:31 | -23.63029 | -46.65521 | 2602 ft | 15 kts | 175° |
| 2026-04-18 09:32 | -23.63109 | -46.65484 | 2601 ft | 12 kts | 148° |
| 2026-04-18 09:32 | -23.63181 | -46.65435 | 2601 ft | 12 kts | 148° |
| 2026-04-18 09:32 | -23.63252 | -46.65386 | 2601 ft | 12 kts | 148° |
| 2026-04-18 09:32 | -23.63320 | -46.65339 | 2601 ft | 11 kts | 147° |
| 2026-04-18 09:33 | -23.63386 | -46.65292 | 2601 ft | 11 kts | 147° |
| 2026-04-18 09:33 | -23.63451 | -46.65247 | 2600 ft | 11 kts | 147° |
| 2026-04-18 09:33 | -23.63498 | -46.65210 | 2599 ft | 7 kts | 129° |
| 2026-04-18 09:33 | -23.63497 | -46.65163 | 2599 ft | 7 kts | 56° |
| 2026-04-18 09:34 | -23.63462 | -46.65134 | 2599 ft | 6 kts | 32° |
| 2026-04-18 09:34 | -23.63438 | -46.65120 | 2599 ft | 4 kts | 4° |
| 2026-04-18 09:34 | -23.63421 | -46.65126 | 2600 ft | 4 kts | 332° |
| 2026-04-18 09:34 | -23.63416 | -46.65128 | 2601 ft | 0 kts | 329° |
| 2026-04-18 09:36 | -23.63345 | -46.65177 | 2606 ft | 43 kts | 328° |
| 2026-04-18 09:36 | -23.62867 | -46.65508 | 2607 ft | 119 kts | 327° |
| 2026-04-18 09:36 | -23.61984 | -46.66121 | 2681 ft | 170 kts | 327° |
| 2026-04-18 09:36 | -23.60971 | -46.66815 | 3365 ft | 177 kts | 327° |
| 2026-04-18 09:37 | -23.59899 | -46.67477 | 4224 ft | 183 kts | 338° |
| 2026-04-18 09:37 | -23.58540 | -46.67477 | 4563 ft | 214 kts | 19° |
| 2026-04-18 09:37 | -23.57439 | -46.66370 | 5060 ft | 227 kts | 61° |
| 2026-04-18 09:37 | -23.57164 | -46.64685 | 5635 ft | 230 kts | 96° |
| 2026-04-18 09:38 | -23.57709 | -46.62988 | 5815 ft | 246 kts | 126° |
| 2026-04-18 09:38 | -23.58900 | -46.61629 | 5845 ft | 253 kts | 141° |
| 2026-04-18 09:38 | -23.60150 | -46.60284 | 5764 ft | 257 kts | 125° |
| 2026-04-18 09:38 | -23.60832 | -46.58429 | 5737 ft | 270 kts | 103° |
| 2026-04-18 09:39 | -23.61280 | -46.56350 | 5672 ft | 292 kts | 109° |
| 2026-04-18 09:39 | -23.62329 | -46.54495 | 5704 ft | 290 kts | 137° |
| 2026-04-18 09:39 | -23.63809 | -46.52973 | 6351 ft | 294 kts | 139° |
| 2026-04-18 09:39 | -23.65288 | -46.51433 | 7190 ft | 294 kts | 139° |
| 2026-04-18 09:40 | -23.66759 | -46.49884 | 8022 ft | 295 kts | 139° |
| 2026-04-18 09:40 | -23.68234 | -46.48325 | 8853 ft | 296 kts | 139° |
| 2026-04-18 09:40 | -23.69719 | -46.46751 | 9653 ft | 298 kts | 138° |
| 2026-04-18 09:40 | -23.70918 | -46.44881 | 10311 ft | 311 kts | 113° |
| 2026-04-18 09:41 | -23.71232 | -46.42464 | 10496 ft | 338 kts | 85° |
| 2026-04-18 09:41 | -23.70884 | -46.39855 | 10772 ft | 357 kts | 81° |
| 2026-04-18 09:41 | -23.70460 | -46.37157 | 11330 ft | 364 kts | 81° |
| 2026-04-18 09:41 | -23.70027 | -46.34422 | 12005 ft | 367 kts | 81° |
| 2026-04-18 09:42 | -23.69605 | -46.31670 | 12680 ft | 370 kts | 81° |
| 2026-04-18 09:42 | -23.69192 | -46.28881 | 13329 ft | 374 kts | 81° |
| 2026-04-18 09:42 | -23.68782 | -46.26056 | 13930 ft | 379 kts | 82° |
| 2026-04-18 09:42 | -23.68372 | -46.23200 | 14488 ft | 383 kts | 82° |
| 2026-04-18 09:43 | -23.67960 | -46.20322 | 15067 ft | 386 kts | 82° |
| 2026-04-18 09:43 | -23.67549 | -46.17454 | 15655 ft | 389 kts | 82° |
| 2026-04-18 09:43 | -23.67129 | -46.14527 | 16243 ft | 392 kts | 82° |
| 2026-04-18 09:43 | -23.66473 | -46.11634 | 16764 ft | 397 kts | 66° |
| 2026-04-18 09:44 | -23.65258 | -46.08921 | 17375 ft | 399 kts | 63° |
| 2026-04-18 09:44 | -23.63989 | -46.06213 | 17930 ft | 403 kts | 63° |
| 2026-04-18 09:44 | -23.62707 | -46.03476 | 18416 ft | 407 kts | 63° |
| 2026-04-18 09:44 | -23.61422 | -46.00708 | 18884 ft | 411 kts | 63° |
| 2026-04-18 09:45 | -23.60137 | -45.97914 | 19362 ft | 414 kts | 63° |
| 2026-04-18 09:45 | -23.58850 | -45.95095 | 19846 ft | 417 kts | 63° |
| 2026-04-18 09:45 | -23.57559 | -45.92256 | 20340 ft | 419 kts | 63° |
| 2026-04-18 09:45 | -23.56260 | -45.89397 | 20802 ft | 423 kts | 63° |
| 2026-04-18 09:46 | -23.54951 | -45.86513 | 21255 ft | 426 kts | 63° |
| 2026-04-18 09:46 | -23.53631 | -45.83606 | 21718 ft | 430 kts | 63° |
| 2026-04-18 09:46 | -23.52300 | -45.80679 | 22172 ft | 433 kts | 63° |
| 2026-04-18 09:46 | -23.50959 | -45.77731 | 22616 ft | 436 kts | 63° |
| 2026-04-18 09:47 | -23.49608 | -45.74761 | 23062 ft | 439 kts | 63° |
| 2026-04-18 09:47 | -23.48247 | -45.71774 | 23488 ft | 442 kts | 63° |
| 2026-04-18 09:47 | -23.46877 | -45.68769 | 23855 ft | 444 kts | 63° |
| 2026-04-18 09:47 | -23.45498 | -45.65746 | 24221 ft | 447 kts | 63° |
| 2026-04-18 09:48 | -23.44113 | -45.62709 | 24597 ft | 449 kts | 63° |
| 2026-04-18 09:48 | -23.42721 | -45.59660 | 24983 ft | 451 kts | 63° |
| 2026-04-18 09:48 | -23.41319 | -45.56591 | 25346 ft | 453 kts | 63° |
| 2026-04-18 09:48 | -23.39911 | -45.53513 | 25706 ft | 455 kts | 63° |
| 2026-04-18 09:49 | -23.38601 | -45.50422 | 26040 ft | 458 kts | 71° |
| 2026-04-18 09:49 | -23.37776 | -45.47070 | 26384 ft | 460 kts | 78° |
| 2026-04-18 09:49 | -23.37136 | -45.43657 | 26755 ft | 461 kts | 79° |
| 2026-04-18 09:49 | -23.36500 | -45.40225 | 27080 ft | 464 kts | 79° |
| 2026-04-18 09:50 | -23.35814 | -45.36778 | 27402 ft | 467 kts | 78° |
| 2026-04-18 09:50 | -23.35085 | -45.33331 | 27753 ft | 469 kts | 77° |
| 2026-04-18 09:50 | -23.34336 | -45.29871 | 28077 ft | 471 kts | 77° |
| 2026-04-18 09:50 | -23.33583 | -45.26396 | 28389 ft | 473 kts | 77° |
| 2026-04-18 09:51 | -23.32829 | -45.22906 | 28711 ft | 475 kts | 77° |
| 2026-04-18 09:51 | -23.32072 | -45.19399 | 28999 ft | 478 kts | 77° |
| 2026-04-18 09:51 | -23.31312 | -45.15875 | 29299 ft | 480 kts | 77° |
| 2026-04-18 09:51 | -23.30549 | -45.12338 | 29608 ft | 481 kts | 77° |
| 2026-04-18 09:52 | -23.29784 | -45.08797 | 29989 ft | 481 kts | 77° |
| 2026-04-18 09:52 | -23.29018 | -45.05259 | 30364 ft | 479 kts | 77° |
| 2026-04-18 09:52 | -23.28255 | -45.01734 | 30687 ft | 479 kts | 77° |
| 2026-04-18 09:52 | -23.27491 | -44.98211 | 30969 ft | 480 kts | 77° |
| 2026-04-18 09:53 | -23.26725 | -44.94681 | 31289 ft | 480 kts | 77° |
| 2026-04-18 09:53 | -23.25955 | -44.91141 | 31553 ft | 481 kts | 77° |
| 2026-04-18 09:53 | -23.25186 | -44.87605 | 31850 ft | 481 kts | 77° |
| 2026-04-18 09:53 | -23.24416 | -44.84070 | 32146 ft | 481 kts | 77° |
| 2026-04-18 09:54 | -23.23645 | -44.80532 | 32428 ft | 481 kts | 77° |
| 2026-04-18 09:54 | -23.22872 | -44.76993 | 32717 ft | 481 kts | 77° |
| 2026-04-18 09:54 | -23.22100 | -44.73461 | 32930 ft | 482 kts | 77° |
| 2026-04-18 09:54 | -23.21322 | -44.69902 | 32893 ft | 485 kts | 77° |
| 2026-04-18 09:55 | -23.19762 | -44.62786 | 32882 ft | 481 kts | 77° |
| 2026-04-18 09:55 | -23.18281 | -44.55748 | 32892 ft | 477 kts | 77° |
| 2026-04-18 09:56 | -23.16779 | -44.48732 | 32876 ft | 477 kts | 77° |
| 2026-04-18 09:56 | -23.15215 | -44.41733 | 32884 ft | 477 kts | 76° |
| 2026-04-18 09:57 | -23.13649 | -44.34727 | 32869 ft | 478 kts | 76° |
| 2026-04-18 09:57 | -23.12086 | -44.27706 | 32881 ft | 478 kts | 77° |
| 2026-04-18 09:58 | -23.10519 | -44.20666 | 32884 ft | 480 kts | 76° |
| 2026-04-18 09:58 | -23.08958 | -44.13665 | 32860 ft | 480 kts | 76° |
| 2026-04-18 09:59 | -23.07383 | -44.06619 | 32846 ft | 480 kts | 76° |
| 2026-04-18 10:00 | -23.05015 | -43.96058 | 32884 ft | 480 kts | 76° |
| 2026-04-18 10:00 | -23.03433 | -43.89017 | 32881 ft | 480 kts | 76° |
| 2026-04-18 10:01 | -23.01848 | -43.81984 | 32893 ft | 480 kts | 76° |
| 2026-04-18 10:01 | -23.00260 | -43.74947 | 32886 ft | 480 kts | 76° |
| 2026-04-18 10:02 | -22.98406 | -43.68012 | 32875 ft | 478 kts | 67° |
| 2026-04-18 10:02 | -22.95761 | -43.61392 | 32884 ft | 478 kts | 65° |
| 2026-04-18 10:03 | -22.93072 | -43.54799 | 32886 ft | 478 kts | 66° |
| 2026-04-18 10:03 | -22.90437 | -43.48165 | 32876 ft | 479 kts | 66° |
| 2026-04-18 10:04 | -22.87823 | -43.41519 | 32879 ft | 479 kts | 66° |
| 2026-04-18 10:04 | -22.85207 | -43.34878 | 32859 ft | 479 kts | 66° |
| 2026-04-18 10:05 | -22.82584 | -43.28239 | 32886 ft | 479 kts | 66° |
| 2026-04-18 10:05 | -22.79422 | -43.21910 | 32899 ft | 477 kts | 55° |
| 2026-04-18 10:06 | -22.75706 | -43.15939 | 32886 ft | 478 kts | 54° |
| 2026-04-18 10:06 | -22.71982 | -43.09972 | 32885 ft | 478 kts | 54° |
| 2026-04-18 10:07 | -22.68299 | -43.03968 | 32896 ft | 479 kts | 54° |
| 2026-04-18 10:07 | -22.64627 | -42.97937 | 32915 ft | 480 kts | 54° |
| 2026-04-18 10:08 | -22.60944 | -42.91891 | 32906 ft | 481 kts | 54° |
| 2026-04-18 10:08 | -22.57254 | -42.85845 | 32918 ft | 482 kts | 54° |
| 2026-04-18 10:09 | -22.53557 | -42.79796 | 32914 ft | 482 kts | 54° |
| 2026-04-18 10:09 | -22.49852 | -42.73741 | 32926 ft | 483 kts | 54° |
| 2026-04-18 10:10 | -22.46137 | -42.67679 | 32940 ft | 484 kts | 54° |
| 2026-04-18 10:10 | -22.42416 | -42.61611 | 32934 ft | 484 kts | 54° |
| 2026-04-18 10:11 | -22.38688 | -42.55540 | 32926 ft | 486 kts | 53° |
| 2026-04-18 10:11 | -22.34947 | -42.49454 | 32938 ft | 486 kts | 53° |
| 2026-04-18 10:12 | -22.31202 | -42.43367 | 32941 ft | 487 kts | 53° |
| 2026-04-18 10:12 | -22.27354 | -42.37366 | 32963 ft | 485 kts | 50° |
| 2026-04-18 10:13 | -22.23286 | -42.31618 | 32921 ft | 485 kts | 48° |
| 2026-04-18 10:13 | -22.19157 | -42.25864 | 32953 ft | 485 kts | 48° |
| 2026-04-18 10:14 | -22.15047 | -42.20081 | 32947 ft | 486 kts | 49° |
| 2026-04-18 10:14 | -22.10947 | -42.14273 | 32950 ft | 487 kts | 49° |
| 2026-04-18 10:15 | -22.06850 | -42.08467 | 32936 ft | 487 kts | 48° |
| 2026-04-18 10:15 | -22.02739 | -42.02650 | 32934 ft | 488 kts | 48° |
| 2026-04-18 10:16 | -21.98627 | -41.96839 | 32943 ft | 488 kts | 48° |
| 2026-04-18 10:16 | -21.94565 | -41.91100 | 32849 ft | 471 kts | 48° |
| 2026-04-18 10:16 | -21.92587 | -41.88306 | 32510 ft | 467 kts | 48° |
| 2026-04-18 10:17 | -21.90625 | -41.85539 | 32137 ft | 464 kts | 48° |
| 2026-04-18 10:17 | -21.88674 | -41.82792 | 31763 ft | 460 kts | 48° |
| 2026-04-18 10:17 | -21.86740 | -41.80070 | 31398 ft | 456 kts | 48° |
| 2026-04-18 10:17 | -21.84817 | -41.77365 | 31021 ft | 452 kts | 48° |
| 2026-04-18 10:18 | -21.82916 | -41.74691 | 30619 ft | 448 kts | 48° |
| 2026-04-18 10:18 | -21.81032 | -41.72042 | 30299 ft | 444 kts | 48° |
| 2026-04-18 10:18 | -21.79154 | -41.69406 | 29882 ft | 444 kts | 48° |
| 2026-04-18 10:18 | -21.77281 | -41.66776 | 29433 ft | 442 kts | 48° |
| 2026-04-18 10:19 | -21.75446 | -41.64201 | 29032 ft | 436 kts | 48° |
| 2026-04-18 10:19 | -21.73609 | -41.61623 | 28606 ft | 433 kts | 48° |
| 2026-04-18 10:19 | -21.71785 | -41.59063 | 28211 ft | 430 kts | 48° |
| 2026-04-18 10:19 | -21.69973 | -41.56523 | 27828 ft | 427 kts | 48° |
| 2026-04-18 10:20 | -21.68170 | -41.53997 | 27440 ft | 424 kts | 48° |
| 2026-04-18 10:20 | -21.66382 | -41.51493 | 27059 ft | 421 kts | 48° |
| 2026-04-18 10:20 | -21.64605 | -41.49005 | 26674 ft | 418 kts | 48° |
| 2026-04-18 10:20 | -21.62839 | -41.46533 | 26294 ft | 416 kts | 48° |
| 2026-04-18 10:21 | -21.61082 | -41.44076 | 25922 ft | 414 kts | 49° |
| 2026-04-18 10:21 | -21.59334 | -41.41633 | 25535 ft | 411 kts | 49° |
| 2026-04-18 10:21 | -21.57592 | -41.39199 | 25138 ft | 410 kts | 49° |
| 2026-04-18 10:21 | -21.55859 | -41.36778 | 24754 ft | 408 kts | 49° |
| 2026-04-18 10:22 | -21.54134 | -41.34368 | 24401 ft | 406 kts | 49° |
| 2026-04-18 10:22 | -21.52416 | -41.31969 | 24016 ft | 405 kts | 49° |
| 2026-04-18 10:22 | -21.50703 | -41.29580 | 23644 ft | 403 kts | 49° |
| 2026-04-18 10:22 | -21.48934 | -41.27263 | 23212 ft | 399 kts | 41° |
| 2026-04-18 10:23 | -21.46866 | -41.25321 | 22855 ft | 392 kts | 35° |
| 2026-04-18 10:23 | -21.44740 | -41.23510 | 22465 ft | 389 kts | 34° |
| 2026-04-18 10:23 | -21.42621 | -41.21718 | 22086 ft | 386 kts | 35° |
| 2026-04-18 10:23 | -21.41230 | -41.20526 | 21840 ft | 385 kts | 35° |
| 2026-04-18 10:24 | -21.39159 | -41.18728 | 21471 ft | 382 kts | 36° |
| 2026-04-18 10:24 | -21.37109 | -41.16925 | 21104 ft | 380 kts | 36° |
| 2026-04-18 10:24 | -21.35079 | -41.15129 | 20754 ft | 377 kts | 36° |
| 2026-04-18 10:24 | -21.33063 | -41.13344 | 20407 ft | 375 kts | 36° |
| 2026-04-18 10:25 | -21.31060 | -41.11572 | 20056 ft | 372 kts | 36° |
| 2026-04-18 10:25 | -21.29055 | -41.09805 | 19630 ft | 373 kts | 37° |
| 2026-04-18 10:25 | -21.27054 | -41.08046 | 19265 ft | 371 kts | 37° |
| 2026-04-18 10:25 | -21.25060 | -41.06294 | 18904 ft | 370 kts | 37° |
| 2026-04-18 10:26 | -21.23075 | -41.04549 | 18558 ft | 368 kts | 37° |
| 2026-04-18 10:26 | -21.21096 | -41.02811 | 18190 ft | 367 kts | 37° |
| 2026-04-18 10:26 | -21.19127 | -41.01080 | 17801 ft | 365 kts | 37° |
| 2026-04-18 10:26 | -21.17167 | -40.99358 | 17429 ft | 363 kts | 37° |
| 2026-04-18 10:27 | -21.15224 | -40.97652 | 17074 ft | 360 kts | 37° |
| 2026-04-18 10:27 | -21.13293 | -40.95956 | 16727 ft | 358 kts | 37° |
| 2026-04-18 10:27 | -21.11373 | -40.94271 | 16384 ft | 355 kts | 37° |
| 2026-04-18 10:27 | -21.09470 | -40.92602 | 16048 ft | 353 kts | 37° |
| 2026-04-18 10:28 | -21.07578 | -40.90943 | 15716 ft | 350 kts | 37° |
| 2026-04-18 10:28 | -21.05698 | -40.89296 | 15380 ft | 348 kts | 37° |
| 2026-04-18 10:28 | -21.03830 | -40.87659 | 15045 ft | 346 kts | 38° |
| 2026-04-18 10:28 | -21.01971 | -40.86031 | 14712 ft | 344 kts | 38° |
| 2026-04-18 10:29 | -21.00119 | -40.84409 | 14382 ft | 343 kts | 38° |
| 2026-04-18 10:29 | -20.98281 | -40.82800 | 14034 ft | 342 kts | 38° |
| 2026-04-18 10:29 | -20.96443 | -40.81191 | 13701 ft | 340 kts | 38° |
| 2026-04-18 10:29 | -20.94616 | -40.79592 | 13327 ft | 339 kts | 38° |
| 2026-04-18 10:30 | -20.92799 | -40.78002 | 12974 ft | 336 kts | 38° |
| 2026-04-18 10:30 | -20.90995 | -40.76424 | 12634 ft | 334 kts | 38° |
| 2026-04-18 10:30 | -20.89203 | -40.74857 | 12306 ft | 332 kts | 39° |
| 2026-04-18 10:30 | -20.87424 | -40.73301 | 11972 ft | 329 kts | 39° |
| 2026-04-18 10:31 | -20.85678 | -40.71775 | 11641 ft | 327 kts | 39° |
| 2026-04-18 10:31 | -20.83921 | -40.70240 | 11323 ft | 325 kts | 39° |
| 2026-04-18 10:31 | -20.82172 | -40.68714 | 11006 ft | 324 kts | 39° |
| 2026-04-18 10:31 | -20.80473 | -40.67145 | 10684 ft | 322 kts | 47° |
| 2026-04-18 10:32 | -20.79090 | -40.65276 | 10372 ft | 320 kts | 56° |
| 2026-04-18 10:32 | -20.77812 | -40.63334 | 10049 ft | 318 kts | 56° |
| 2026-04-18 10:32 | -20.76556 | -40.61404 | 9834 ft | 313 kts | 56° |
| 2026-04-18 10:32 | -20.75335 | -40.59543 | 9849 ft | 300 kts | 56° |
| 2026-04-18 10:33 | -20.74151 | -40.57753 | 9719 ft | 292 kts | 56° |
| 2026-04-18 10:33 | -20.72981 | -40.55996 | 9464 ft | 289 kts | 56° |
| 2026-04-18 10:33 | -20.71812 | -40.54249 | 9167 ft | 289 kts | 56° |
| 2026-04-18 10:33 | -20.70644 | -40.52510 | 8883 ft | 288 kts | 56° |
| 2026-04-18 10:34 | -20.69478 | -40.50779 | 8594 ft | 287 kts | 55° |
| 2026-04-18 10:34 | -20.68317 | -40.49058 | 8313 ft | 285 kts | 55° |
| 2026-04-18 10:34 | -20.67157 | -40.47340 | 8027 ft | 284 kts | 55° |
| 2026-04-18 10:34 | -20.66003 | -40.45632 | 7746 ft | 283 kts | 55° |
| 2026-04-18 10:35 | -20.64852 | -40.43930 | 7470 ft | 282 kts | 55° |
| 2026-04-18 10:35 | -20.63706 | -40.42236 | 7203 ft | 281 kts | 55° |
| 2026-04-18 10:35 | -20.62564 | -40.40549 | 6925 ft | 280 kts | 55° |
| 2026-04-18 10:35 | -20.61424 | -40.38866 | 6662 ft | 279 kts | 55° |
| 2026-04-18 10:36 | -20.60288 | -40.37188 | 6392 ft | 278 kts | 54° |
| 2026-04-18 10:36 | -20.59159 | -40.35522 | 6143 ft | 276 kts | 54° |
| 2026-04-18 10:36 | -20.58042 | -40.33873 | 5909 ft | 273 kts | 54° |
| 2026-04-18 10:36 | -20.56932 | -40.32236 | 5629 ft | 272 kts | 54° |
| 2026-04-18 10:37 | -20.55827 | -40.30605 | 5370 ft | 270 kts | 54° |
| 2026-04-18 10:37 | -20.54726 | -40.28982 | 5113 ft | 269 kts | 54° |
| 2026-04-18 10:37 | -20.53634 | -40.27373 | 4881 ft | 266 kts | 53° |
| 2026-04-18 10:37 | -20.52561 | -40.25792 | 4734 ft | 260 kts | 53° |
| 2026-04-18 10:38 | -20.51498 | -40.24229 | 4392 ft | 263 kts | 52° |
| 2026-04-18 10:38 | -20.50188 | -40.22962 | 4282 ft | 250 kts | 23° |
| 2026-04-18 10:38 | -20.48536 | -40.22608 | 4122 ft | 240 kts | 353° |
| 2026-04-18 10:38 | -20.46946 | -40.23115 | 4064 ft | 241 kts | 328° |
| 2026-04-18 10:39 | -20.45724 | -40.24299 | 4021 ft | 237 kts | 302° |
| 2026-04-18 10:39 | -20.45145 | -40.25912 | 4017 ft | 234 kts | 276° |
| 2026-04-18 10:39 | -20.45316 | -40.27635 | 4037 ft | 237 kts | 249° |
| 2026-04-18 10:39 | -20.46187 | -40.29123 | 4022 ft | 239 kts | 225° |
| 2026-04-18 10:40 | -20.47556 | -40.30111 | 4021 ft | 240 kts | 204° |
| 2026-04-18 10:40 | -20.49098 | -40.30790 | 4018 ft | 240 kts | 203° |
| 2026-04-18 10:40 | -20.50651 | -40.31458 | 4016 ft | 241 kts | 201° |
| 2026-04-18 10:40 | -20.52292 | -40.31753 | 4015 ft | 241 kts | 176° |
| 2026-04-18 10:41 | -20.53958 | -40.31526 | 4015 ft | 242 kts | 173° |
| 2026-04-18 10:41 | -20.55626 | -40.31274 | 4017 ft | 242 kts | 173° |
| 2026-04-18 10:41 | -20.57300 | -40.31026 | 4013 ft | 243 kts | 173° |
| 2026-04-18 10:41 | -20.58973 | -40.30780 | 4012 ft | 243 kts | 173° |
| 2026-04-18 10:42 | -20.60594 | -40.30310 | 4000 ft | 244 kts | 149° |
| 2026-04-18 10:42 | -20.61799 | -40.29068 | 4018 ft | 244 kts | 121° |
| 2026-04-18 10:42 | -20.62349 | -40.27373 | 4015 ft | 244 kts | 94° |
| 2026-04-18 10:42 | -20.62144 | -40.25619 | 4012 ft | 243 kts | 68° |
| 2026-04-18 10:43 | -20.61188 | -40.24129 | 4013 ft | 242 kts | 38° |
| 2026-04-18 10:43 | -20.59744 | -40.23303 | 4025 ft | 239 kts | 13° |
| 2026-04-18 10:43 | -20.58100 | -40.23172 | 4016 ft | 238 kts | 352° |
| 2026-04-18 10:43 | -20.56455 | -40.23412 | 4027 ft | 240 kts | 350° |
| 2026-04-18 10:44 | -20.54796 | -40.23664 | 4013 ft | 242 kts | 351° |
| 2026-04-18 10:44 | -20.53126 | -40.23914 | 4023 ft | 243 kts | 350° |
| 2026-04-18 10:44 | -20.51450 | -40.24164 | 4013 ft | 244 kts | 349° |
| 2026-04-18 10:44 | -20.49909 | -40.24816 | 4005 ft | 237 kts | 318° |
| 2026-04-18 10:45 | -20.48968 | -40.26204 | 4013 ft | 232 kts | 289° |
| 2026-04-18 10:45 | -20.48773 | -40.27902 | 4027 ft | 234 kts | 262° |
| 2026-04-18 10:45 | -20.49350 | -40.29526 | 4017 ft | 239 kts | 234° |
| 2026-04-18 10:45 | -20.50616 | -40.30658 | 4021 ft | 242 kts | 204° |
| 2026-04-18 10:46 | -20.52264 | -40.30987 | 4031 ft | 244 kts | 179° |
| 2026-04-18 10:46 | -20.53963 | -40.30798 | 4016 ft | 246 kts | 173° |
| 2026-04-18 10:46 | -20.55651 | -40.30530 | 4007 ft | 244 kts | 172° |
| 2026-04-18 10:46 | -20.57326 | -40.30267 | 4003 ft | 242 kts | 173° |
| 2026-04-18 10:47 | -20.58984 | -40.30010 | 4005 ft | 240 kts | 170° |
| 2026-04-18 10:47 | -20.60487 | -40.29307 | 4006 ft | 238 kts | 139° |
| 2026-04-18 10:47 | -20.61425 | -40.27861 | 4033 ft | 242 kts | 109° |
| 2026-04-18 10:47 | -20.61599 | -40.26073 | 4019 ft | 246 kts | 79° |
| 2026-04-18 10:48 | -20.60923 | -40.24425 | 4005 ft | 245 kts | 48° |
| 2026-04-18 10:48 | -20.59561 | -40.23395 | 4015 ft | 241 kts | 16° |
| 2026-04-18 10:48 | -20.57913 | -40.23186 | 4024 ft | 239 kts | 354° |
| 2026-04-18 10:48 | -20.56261 | -40.23399 | 4014 ft | 240 kts | 349° |
| 2026-04-18 10:49 | -20.54606 | -40.23664 | 4009 ft | 241 kts | 350° |
| 2026-04-18 10:49 | -20.52943 | -40.23924 | 4017 ft | 242 kts | 350° |
| 2026-04-18 10:49 | -20.51277 | -40.24187 | 4015 ft | 242 kts | 347° |
| 2026-04-18 10:49 | -20.49789 | -40.24941 | 4013 ft | 237 kts | 315° |
| 2026-04-18 10:50 | -20.48920 | -40.26394 | 4017 ft | 234 kts | 285° |
| 2026-04-18 10:50 | -20.48826 | -40.28105 | 4017 ft | 233 kts | 257° |
| 2026-04-18 10:50 | -20.49508 | -40.29654 | 4020 ft | 234 kts | 229° |
| 2026-04-18 10:50 | -20.50820 | -40.30656 | 4018 ft | 236 kts | 200° |
| 2026-04-18 10:51 | -20.52438 | -40.30896 | 4019 ft | 238 kts | 176° |
| 2026-04-18 10:51 | -20.54085 | -40.30668 | 4033 ft | 240 kts | 173° |
| 2026-04-18 10:51 | -20.55723 | -40.30418 | 4017 ft | 242 kts | 173° |
| 2026-04-18 10:51 | -20.57420 | -40.30163 | 4017 ft | 243 kts | 173° |
| 2026-04-18 10:52 | -20.59073 | -40.29910 | 4011 ft | 244 kts | 169° |
| 2026-04-18 10:52 | -20.60599 | -40.29153 | 4007 ft | 245 kts | 137° |
| 2026-04-18 10:52 | -20.61502 | -40.27641 | 4016 ft | 245 kts | 105° |
| 2026-04-18 10:52 | -20.61566 | -40.25850 | 4015 ft | 244 kts | 75° |
| 2026-04-18 10:53 | -20.60789 | -40.24273 | 4005 ft | 242 kts | 44° |
| 2026-04-18 10:53 | -20.59386 | -40.23346 | 4017 ft | 238 kts | 13° |
| 2026-04-18 10:53 | -20.57750 | -40.23202 | 4025 ft | 238 kts | 353° |
| 2026-04-18 10:53 | -20.56107 | -40.23425 | 4017 ft | 239 kts | 349° |
| 2026-04-18 10:54 | -20.54456 | -40.23688 | 4012 ft | 241 kts | 349° |
| 2026-04-18 10:54 | -20.52792 | -40.23948 | 4027 ft | 242 kts | 350° |
| 2026-04-18 10:54 | -20.51116 | -40.24204 | 4023 ft | 246 kts | 350° |
| 2026-04-18 10:54 | -20.49394 | -40.24467 | 4026 ft | 251 kts | 351° |
| 2026-04-18 10:55 | -20.47691 | -40.24723 | 3997 ft | 242 kts | 350° |
| 2026-04-18 10:55 | -20.46057 | -40.24966 | 3899 ft | 232 kts | 351° |
| 2026-04-18 10:55 | -20.44485 | -40.25198 | 3749 ft | 227 kts | 350° |
| 2026-04-18 10:55 | -20.42936 | -40.25429 | 3546 ft | 221 kts | 351° |
| 2026-04-18 10:56 | -20.41432 | -40.25652 | 3315 ft | 215 kts | 351° |
| 2026-04-18 10:56 | -20.39976 | -40.25867 | 3088 ft | 207 kts | 351° |
| 2026-04-18 10:56 | -20.38587 | -40.26073 | 2807 ft | 196 kts | 351° |
| 2026-04-18 10:56 | -20.37268 | -40.26268 | 2560 ft | 186 kts | 351° |
| 2026-04-18 10:57 | -20.36027 | -40.26451 | 2305 ft | 175 kts | 351° |
| 2026-04-18 10:57 | -20.34848 | -40.26625 | 2070 ft | 165 kts | 351° |
| 2026-04-18 10:57 | -20.33780 | -40.26783 | 1877 ft | 153 kts | 351° |
| 2026-04-18 10:57 | -20.32733 | -40.26939 | 1632 ft | 150 kts | 351° |
| 2026-04-18 10:58 | -20.31687 | -40.27093 | 1403 ft | 148 kts | 352° |
| 2026-04-18 10:58 | -20.30675 | -40.27247 | 1161 ft | 147 kts | 352° |
| 2026-04-18 10:58 | -20.29669 | -40.27403 | 892 ft | 148 kts | 352° |
| 2026-04-18 10:58 | -20.28641 | -40.27562 | 609 ft | 151 kts | 352° |
| 2026-04-18 10:59 | -20.27597 | -40.27709 | 319 ft | 152 kts | 353° |
| 2026-04-18 10:59 | -20.26557 | -40.27855 | 88 ft | 149 kts | 352° |
| 2026-04-18 10:59 | -20.25594 | -40.27996 | 36 ft | 123 kts | 353° |
| 2026-04-18 10:59 | -20.24967 | -40.28086 | 26 ft | 53 kts | 352° |
| 2026-04-18 11:00 | -20.24834 | -40.28094 | 26 ft | 10 kts | 27° |
| 2026-04-18 11:00 | -20.24786 | -40.28084 | 23 ft | 7 kts | 332° |
| 2026-04-18 11:00 | -20.24799 | -40.28119 | 23 ft | 7 kts | 182° |
| 2026-04-18 11:00 | -20.24851 | -40.28105 | 23 ft | 9 kts | 167° |
| 2026-04-18 11:01 | -20.24921 | -40.28109 | 24 ft | 12 kts | 205° |
| 2026-04-18 11:01 | -20.25005 | -40.28163 | 28 ft | 16 kts | 211° |
| 2026-04-18 11:01 | -20.25115 | -40.28234 | 22 ft | 21 kts | 211° |
| 2026-04-18 11:02 | -20.25401 | -40.28423 | 21 ft | 26 kts | 211° |
| 2026-04-18 11:02 | -20.25554 | -40.28524 | 18 ft | 25 kts | 212° |
| 2026-04-18 11:02 | -20.25687 | -40.28612 | 17 ft | 15 kts | 212° |
| 2026-04-18 11:02 | -20.25751 | -40.28664 | 15 ft | 11 kts | 249° |
| 2026-04-18 11:03 | -20.25721 | -40.28743 | 16 ft | 8 kts | 300° |
| 2026-04-18 11:03 | -20.25709 | -40.28796 | 19 ft | 8 kts | 252° |
| 2026-04-18 11:03 | -20.25755 | -40.28839 | 21 ft | 5 kts | 210° |
| 2026-04-18 11:03 | -20.25774 | -40.28850 | 19 ft | 5 kts | 210° |
| 2026-04-18 11:04 | -20.25816 | -40.28879 | 19 ft | 9 kts | 212° |
| 2026-04-18 11:04 | -20.25854 | -40.28904 | 22 ft | 0 kts | 212° |
| 2026-04-18 11:04 | -20.25866 | -40.28916 | 21 ft | 4 kts | 239° |
| 2026-04-18 11:04 | -20.25863 | -40.28948 | 19 ft | 0 kts | 301° |
| 2026-04-18 11:05 | -20.25857 | -40.28958 | 21 ft | 0 kts | 302° |